sensor_id;sensor_type;location;lat;lon;timestamp;P1;durP1;ratioP1;P2;durP2;ratioP2
74777;SDS011;63298;53.164;8.610;2023-03-01T00:01:27;12.00;;;5.88;;
74777;SDS011;63298;53.164;8.610;2023-03-01T00:03:55;10.98;;;6.18;;
74777;SDS011;63298;53.164;8.610;2023-03-01T00:06:21;12.55;;;6.47;;
74777;SDS011;63298;53.164;8.610;2023-03-01T00:08:47;11.23;;;6.28;;
74777;SDS011;63298;53.164;8.610;2023-03-01T00:11:26;11.20;;;6.10;;
74777;SDS011;63298;53.164;8.610;2023-03-01T00:13:58;11.60;;;5.55;;
74777;SDS011;63298;53.164;8.610;2023-03-01T00:16:26;9.68;;;5.38;;
74777;SDS011;63298;53.164;8.610;2023-03-01T00:18:53;12.52;;;5.65;;
74777;SDS011;63298;53.164;8.610;2023-03-01T00:21:23;8.50;;;4.93;;
74777;SDS011;63298;53.164;8.610;2023-03-01T00:23:49;8.88;;;4.82;;
74777;SDS011;63298;53.164;8.610;2023-03-01T00:26:15;12.45;;;4.53;;
74777;SDS011;63298;53.164;8.610;2023-03-01T00:28:41;11.38;;;5.57;;
74777;SDS011;63298;53.164;8.610;2023-03-01T00:31:12;10.02;;;4.57;;
74777;SDS011;63298;53.164;8.610;2023-03-01T00:33:39;9.07;;;4.40;;
74777;SDS011;63298;53.164;8.610;2023-03-01T00:36:05;9.35;;;4.97;;
74777;SDS011;63298;53.164;8.610;2023-03-01T00:38:33;10.93;;;4.43;;
74777;SDS011;63298;53.164;8.610;2023-03-01T00:41:07;10.75;;;5.18;;
74777;SDS011;63298;53.164;8.610;2023-03-01T00:43:34;8.45;;;5.25;;
74777;SDS011;63298;53.164;8.610;2023-03-01T00:46:01;11.23;;;5.00;;
74777;SDS011;63298;53.164;8.610;2023-03-01T00:48:27;10.13;;;5.00;;
74777;SDS011;63298;53.164;8.610;2023-03-01T00:50:52;9.33;;;4.67;;
74777;SDS011;63298;53.164;8.610;2023-03-01T00:53:18;8.23;;;4.72;;
74777;SDS011;63298;53.164;8.610;2023-03-01T00:55:43;8.77;;;4.82;;
74777;SDS011;63298;53.164;8.610;2023-03-01T00:58:09;7.53;;;3.90;;
74777;SDS011;63298;53.164;8.610;2023-03-01T01:00:34;9.30;;;4.50;;
74777;SDS011;63298;53.164;8.610;2023-03-01T01:02:59;12.65;;;4.65;;
74777;SDS011;63298;53.164;8.610;2023-03-01T01:05:25;7.60;;;4.53;;
74777;SDS011;63298;53.164;8.610;2023-03-01T01:07:50;9.85;;;4.25;;
74777;SDS011;63298;53.164;8.610;2023-03-01T01:10:15;6.53;;;4.17;;
74777;SDS011;63298;53.164;8.610;2023-03-01T01:12:41;7.25;;;4.28;;
74777;SDS011;63298;53.164;8.610;2023-03-01T01:15:06;8.90;;;3.92;;
74777;SDS011;63298;53.164;8.610;2023-03-01T01:17:32;7.18;;;4.47;;
74777;SDS011;63298;53.164;8.610;2023-03-01T01:19:57;6.97;;;4.35;;
74777;SDS011;63298;53.164;8.610;2023-03-01T01:22:23;5.38;;;3.78;;
74777;SDS011;63298;53.164;8.610;2023-03-01T01:24:48;6.47;;;4.43;;
74777;SDS011;63298;53.164;8.610;2023-03-01T01:27:13;5.95;;;4.07;;
74777;SDS011;63298;53.164;8.610;2023-03-01T01:29:39;9.33;;;4.97;;
74777;SDS011;63298;53.164;8.610;2023-03-01T01:32:04;8.40;;;4.43;;
74777;SDS011;63298;53.164;8.610;2023-03-01T01:34:30;9.07;;;5.28;;
74777;SDS011;63298;53.164;8.610;2023-03-01T01:36:55;7.75;;;4.43;;
74777;SDS011;63298;53.164;8.610;2023-03-01T01:39:20;8.93;;;4.97;;
74777;SDS011;63298;53.164;8.610;2023-03-01T01:41:47;12.60;;;4.82;;
74777;SDS011;63298;53.164;8.610;2023-03-01T01:46:47;6.60;;;4.63;;
74777;SDS011;63298;53.164;8.610;2023-03-01T01:51:44;7.60;;;4.55;;
74777;SDS011;63298;53.164;8.610;2023-03-01T01:54:19;9.30;;;5.10;;
74777;SDS011;63298;53.164;8.610;2023-03-01T01:56:52;8.50;;;4.88;;
74777;SDS011;63298;53.164;8.610;2023-03-01T01:59:22;10.07;;;5.00;;
74777;SDS011;63298;53.164;8.610;2023-03-01T02:01:48;8.95;;;5.13;;
74777;SDS011;63298;53.164;8.610;2023-03-01T02:04:13;8.88;;;4.68;;
74777;SDS011;63298;53.164;8.610;2023-03-01T02:06:48;12.07;;;4.97;;
74777;SDS011;63298;53.164;8.610;2023-03-01T02:09:19;10.00;;;5.47;;
74777;SDS011;63298;53.164;8.610;2023-03-01T02:11:47;10.43;;;5.32;;
74777;SDS011;63298;53.164;8.610;2023-03-01T02:14:13;6.70;;;4.55;;
74777;SDS011;63298;53.164;8.610;2023-03-01T02:16:40;8.07;;;4.70;;
74777;SDS011;63298;53.164;8.610;2023-03-01T02:19:06;10.82;;;4.97;;
74777;SDS011;63298;53.164;8.610;2023-03-01T02:26:53;10.73;;;5.18;;
74777;SDS011;63298;53.164;8.610;2023-03-01T02:29:22;7.40;;;4.63;;
74777;SDS011;63298;53.164;8.610;2023-03-01T02:31:48;10.38;;;5.32;;
74777;SDS011;63298;53.164;8.610;2023-03-01T02:34:17;9.07;;;4.93;;
74777;SDS011;63298;53.164;8.610;2023-03-01T02:36:49;9.48;;;4.82;;
74777;SDS011;63298;53.164;8.610;2023-03-01T02:39:20;6.95;;;4.70;;
74777;SDS011;63298;53.164;8.610;2023-03-01T02:41:51;7.72;;;5.13;;
74777;SDS011;63298;53.164;8.610;2023-03-01T02:44:19;11.00;;;5.18;;
74777;SDS011;63298;53.164;8.610;2023-03-01T02:46:50;11.32;;;5.85;;
74777;SDS011;63298;53.164;8.610;2023-03-01T02:49:22;9.07;;;5.28;;
74777;SDS011;63298;53.164;8.610;2023-03-01T02:54:51;7.93;;;4.95;;
74777;SDS011;63298;53.164;8.610;2023-03-01T02:57:19;9.43;;;5.53;;
74777;SDS011;63298;53.164;8.610;2023-03-01T02:59:45;9.35;;;5.10;;
74777;SDS011;63298;53.164;8.610;2023-03-01T03:02:24;9.88;;;5.10;;
74777;SDS011;63298;53.164;8.610;2023-03-01T03:04:54;9.30;;;4.72;;
74777;SDS011;63298;53.164;8.610;2023-03-01T03:07:20;7.83;;;4.87;;
74777;SDS011;63298;53.164;8.610;2023-03-01T03:09:45;10.65;;;4.65;;
74777;SDS011;63298;53.164;8.610;2023-03-01T03:12:10;12.03;;;5.33;;
74777;SDS011;63298;53.164;8.610;2023-03-01T03:14:36;8.60;;;4.88;;
74777;SDS011;63298;53.164;8.610;2023-03-01T03:17:01;8.47;;;5.07;;
74777;SDS011;63298;53.164;8.610;2023-03-01T03:19:26;10.87;;;5.10;;
74777;SDS011;63298;53.164;8.610;2023-03-01T03:21:52;10.23;;;4.57;;
74777;SDS011;63298;53.164;8.610;2023-03-01T03:24:17;9.87;;;5.00;;
74777;SDS011;63298;53.164;8.610;2023-03-01T03:26:42;11.50;;;5.28;;
74777;SDS011;63298;53.164;8.610;2023-03-01T03:29:07;9.10;;;4.90;;
74777;SDS011;63298;53.164;8.610;2023-03-01T03:31:33;11.80;;;4.70;;
74777;SDS011;63298;53.164;8.610;2023-03-01T03:33:58;8.75;;;4.95;;
74777;SDS011;63298;53.164;8.610;2023-03-01T03:36:24;7.80;;;4.00;;
74777;SDS011;63298;53.164;8.610;2023-03-01T03:38:49;7.65;;;4.85;;
74777;SDS011;63298;53.164;8.610;2023-03-01T03:41:15;9.75;;;4.63;;
74777;SDS011;63298;53.164;8.610;2023-03-01T03:43:43;9.68;;;4.72;;
74777;SDS011;63298;53.164;8.610;2023-03-01T03:46:09;8.60;;;4.55;;
74777;SDS011;63298;53.164;8.610;2023-03-01T03:48:37;7.13;;;4.97;;
74777;SDS011;63298;53.164;8.610;2023-03-01T03:51:04;8.43;;;4.85;;
74777;SDS011;63298;53.164;8.610;2023-03-01T03:53:30;8.82;;;4.88;;
74777;SDS011;63298;53.164;8.610;2023-03-01T03:55:55;12.50;;;5.78;;
74777;SDS011;63298;53.164;8.610;2023-03-01T03:58:22;10.57;;;4.97;;
74777;SDS011;63298;53.164;8.610;2023-03-01T04:00:51;10.40;;;4.90;;
74777;SDS011;63298;53.164;8.610;2023-03-01T04:03:18;7.03;;;4.70;;
74777;SDS011;63298;53.164;8.610;2023-03-01T04:05:45;12.63;;;5.57;;
74777;SDS011;63298;53.164;8.610;2023-03-01T04:08:11;9.02;;;4.95;;
74777;SDS011;63298;53.164;8.610;2023-03-01T04:13:10;9.02;;;4.80;;
74777;SDS011;63298;53.164;8.610;2023-03-01T04:15:37;10.00;;;4.80;;
74777;SDS011;63298;53.164;8.610;2023-03-01T04:18:03;9.45;;;5.20;;
74777;SDS011;63298;53.164;8.610;2023-03-01T04:20:30;10.85;;;4.85;;
74777;SDS011;63298;53.164;8.610;2023-03-01T04:23:02;7.50;;;4.78;;
74777;SDS011;63298;53.164;8.610;2023-03-01T04:25:29;5.38;;;3.95;;
74777;SDS011;63298;53.164;8.610;2023-03-01T04:27:54;9.80;;;4.72;;
74777;SDS011;63298;53.164;8.610;2023-03-01T04:30:20;9.40;;;5.18;;
74777;SDS011;63298;53.164;8.610;2023-03-01T04:32:45;8.95;;;4.22;;
74777;SDS011;63298;53.164;8.610;2023-03-01T04:35:10;10.20;;;4.83;;
74777;SDS011;63298;53.164;8.610;2023-03-01T04:37:36;12.73;;;4.97;;
74777;SDS011;63298;53.164;8.610;2023-03-01T04:40:02;10.38;;;5.20;;
74777;SDS011;63298;53.164;8.610;2023-03-01T04:42:28;7.95;;;4.82;;
74777;SDS011;63298;53.164;8.610;2023-03-01T04:44:53;10.80;;;5.53;;
74777;SDS011;63298;53.164;8.610;2023-03-01T04:47:18;5.95;;;4.40;;
74777;SDS011;63298;53.164;8.610;2023-03-01T04:49:44;10.07;;;5.07;;
74777;SDS011;63298;53.164;8.610;2023-03-01T04:52:09;9.40;;;5.87;;
74777;SDS011;63298;53.164;8.610;2023-03-01T04:54:34;11.50;;;5.40;;
74777;SDS011;63298;53.164;8.610;2023-03-01T04:57:01;17.05;;;5.32;;
74777;SDS011;63298;53.164;8.610;2023-03-01T04:59:27;14.02;;;5.10;;
74777;SDS011;63298;53.164;8.610;2023-03-01T05:01:53;10.00;;;5.57;;
74777;SDS011;63298;53.164;8.610;2023-03-01T05:04:20;10.98;;;5.78;;
74777;SDS011;63298;53.164;8.610;2023-03-01T05:06:45;9.70;;;5.43;;
74777;SDS011;63298;53.164;8.610;2023-03-01T05:09:10;7.00;;;4.73;;
74777;SDS011;63298;53.164;8.610;2023-03-01T05:11:36;10.07;;;5.93;;
74777;SDS011;63298;53.164;8.610;2023-03-01T05:14:01;8.37;;;5.47;;
74777;SDS011;63298;53.164;8.610;2023-03-01T05:16:29;11.23;;;5.25;;
74777;SDS011;63298;53.164;8.610;2023-03-01T05:18:54;7.70;;;5.03;;
74777;SDS011;63298;53.164;8.610;2023-03-01T05:21:19;8.80;;;5.30;;
74777;SDS011;63298;53.164;8.610;2023-03-01T05:23:45;10.27;;;5.07;;
74777;SDS011;63298;53.164;8.610;2023-03-01T05:26:10;11.40;;;5.07;;
74777;SDS011;63298;53.164;8.610;2023-03-01T05:28:35;7.43;;;4.57;;
74777;SDS011;63298;53.164;8.610;2023-03-01T05:31:01;9.45;;;5.32;;
74777;SDS011;63298;53.164;8.610;2023-03-01T05:33:26;9.82;;;5.30;;
74777;SDS011;63298;53.164;8.610;2023-03-01T05:35:52;9.07;;;4.80;;
74777;SDS011;63298;53.164;8.610;2023-03-01T05:38:24;8.35;;;5.10;;
74777;SDS011;63298;53.164;8.610;2023-03-01T05:41:27;8.25;;;4.55;;
74777;SDS011;63298;53.164;8.610;2023-03-01T05:43:52;15.15;;;6.88;;
74777;SDS011;63298;53.164;8.610;2023-03-01T05:46:18;10.05;;;6.00;;
74777;SDS011;63298;53.164;8.610;2023-03-01T05:48:43;18.77;;;8.87;;
74777;SDS011;63298;53.164;8.610;2023-03-01T05:51:08;15.80;;;7.43;;
74777;SDS011;63298;53.164;8.610;2023-03-01T05:53:34;9.93;;;5.07;;
74777;SDS011;63298;53.164;8.610;2023-03-01T05:55:59;13.10;;;6.67;;
74777;SDS011;63298;53.164;8.610;2023-03-01T05:58:24;13.13;;;5.63;;
74777;SDS011;63298;53.164;8.610;2023-03-01T06:00:49;10.50;;;6.03;;
74777;SDS011;63298;53.164;8.610;2023-03-01T06:03:15;10.47;;;5.37;;
74777;SDS011;63298;53.164;8.610;2023-03-01T06:05:42;11.30;;;4.97;;
74777;SDS011;63298;53.164;8.610;2023-03-01T06:08:09;10.13;;;5.32;;
74777;SDS011;63298;53.164;8.610;2023-03-01T06:10:35;9.32;;;5.85;;
74777;SDS011;63298;53.164;8.610;2023-03-01T06:13:01;10.13;;;4.68;;
74777;SDS011;63298;53.164;8.610;2023-03-01T06:15:27;14.90;;;5.82;;
74777;SDS011;63298;53.164;8.610;2023-03-01T06:17:53;8.65;;;4.28;;
74777;SDS011;63298;53.164;8.610;2023-03-01T06:20:21;9.07;;;5.20;;
74777;SDS011;63298;53.164;8.610;2023-03-01T06:22:48;11.38;;;5.20;;
74777;SDS011;63298;53.164;8.610;2023-03-01T06:25:15;8.43;;;5.18;;
74777;SDS011;63298;53.164;8.610;2023-03-01T06:27:42;14.93;;;5.50;;
74777;SDS011;63298;53.164;8.610;2023-03-01T06:30:09;9.00;;;4.93;;
74777;SDS011;63298;53.164;8.610;2023-03-01T06:32:36;11.98;;;5.75;;
74777;SDS011;63298;53.164;8.610;2023-03-01T06:35:03;22.50;;;9.23;;
74777;SDS011;63298;53.164;8.610;2023-03-01T06:37:29;14.00;;;7.25;;
74777;SDS011;63298;53.164;8.610;2023-03-01T06:39:54;13.02;;;5.30;;
74777;SDS011;63298;53.164;8.610;2023-03-01T06:42:19;10.47;;;5.37;;
74777;SDS011;63298;53.164;8.610;2023-03-01T06:44:45;9.35;;;5.43;;
74777;SDS011;63298;53.164;8.610;2023-03-01T06:47:10;11.85;;;5.10;;
74777;SDS011;63298;53.164;8.610;2023-03-01T06:49:35;12.57;;;4.82;;
74777;SDS011;63298;53.164;8.610;2023-03-01T06:52:01;7.53;;;4.40;;
74777;SDS011;63298;53.164;8.610;2023-03-01T06:54:26;11.67;;;4.83;;
74777;SDS011;63298;53.164;8.610;2023-03-01T06:56:51;8.47;;;5.30;;
74777;SDS011;63298;53.164;8.610;2023-03-01T06:59:29;10.65;;;5.15;;
74777;SDS011;63298;53.164;8.610;2023-03-01T07:02:46;9.57;;;5.10;;
74777;SDS011;63298;53.164;8.610;2023-03-01T07:05:12;9.23;;;5.10;;
74777;SDS011;63298;53.164;8.610;2023-03-01T07:07:37;10.47;;;5.60;;
74777;SDS011;63298;53.164;8.610;2023-03-01T07:10:02;11.47;;;5.43;;
74777;SDS011;63298;53.164;8.610;2023-03-01T07:12:28;17.20;;;5.85;;
74777;SDS011;63298;53.164;8.610;2023-03-01T07:14:53;8.03;;;5.07;;
74777;SDS011;63298;53.164;8.610;2023-03-01T07:17:18;8.55;;;4.85;;
74777;SDS011;63298;53.164;8.610;2023-03-01T07:19:44;9.83;;;5.17;;
74777;SDS011;63298;53.164;8.610;2023-03-01T07:22:11;11.07;;;5.88;;
74777;SDS011;63298;53.164;8.610;2023-03-01T07:24:37;10.43;;;5.97;;
74777;SDS011;63298;53.164;8.610;2023-03-01T07:27:02;9.57;;;5.05;;
74777;SDS011;63298;53.164;8.610;2023-03-01T07:29:27;10.02;;;5.72;;
74777;SDS011;63298;53.164;8.610;2023-03-01T07:31:53;9.68;;;5.20;;
74777;SDS011;63298;53.164;8.610;2023-03-01T07:34:18;12.70;;;5.33;;
74777;SDS011;63298;53.164;8.610;2023-03-01T07:36:43;13.53;;;5.63;;
74777;SDS011;63298;53.164;8.610;2023-03-01T07:39:09;7.27;;;4.77;;
74777;SDS011;63298;53.164;8.610;2023-03-01T07:41:35;10.93;;;5.50;;
74777;SDS011;63298;53.164;8.610;2023-03-01T07:44:01;15.27;;;5.93;;
74777;SDS011;63298;53.164;8.610;2023-03-01T07:46:29;11.60;;;6.13;;
74777;SDS011;63298;53.164;8.610;2023-03-01T07:48:54;11.07;;;5.75;;
74777;SDS011;63298;53.164;8.610;2023-03-01T07:51:19;20.83;;;5.47;;
74777;SDS011;63298;53.164;8.610;2023-03-01T07:53:45;11.57;;;6.28;;
74777;SDS011;63298;53.164;8.610;2023-03-01T07:56:12;14.35;;;6.82;;
74777;SDS011;63298;53.164;8.610;2023-03-01T07:58:39;14.15;;;6.97;;
74777;SDS011;63298;53.164;8.610;2023-03-01T08:01:06;12.25;;;6.57;;
74777;SDS011;63298;53.164;8.610;2023-03-01T08:03:34;11.65;;;6.43;;
74777;SDS011;63298;53.164;8.610;2023-03-01T08:06:00;13.80;;;6.30;;
74777;SDS011;63298;53.164;8.610;2023-03-01T08:08:27;18.73;;;7.18;;
74777;SDS011;63298;53.164;8.610;2023-03-01T08:10:56;13.27;;;7.07;;
74777;SDS011;63298;53.164;8.610;2023-03-01T08:13:22;17.98;;;7.15;;
74777;SDS011;63298;53.164;8.610;2023-03-01T08:15:48;14.93;;;7.47;;
74777;SDS011;63298;53.164;8.610;2023-03-01T08:18:13;14.07;;;6.85;;
74777;SDS011;63298;53.164;8.610;2023-03-01T08:20:39;8.88;;;5.30;;
74777;SDS011;63298;53.164;8.610;2023-03-01T08:23:04;15.45;;;6.78;;
74777;SDS011;63298;53.164;8.610;2023-03-01T08:25:33;9.20;;;5.47;;
74777;SDS011;63298;53.164;8.610;2023-03-01T08:27:58;13.18;;;6.90;;
74777;SDS011;63298;53.164;8.610;2023-03-01T08:30:24;14.60;;;8.05;;
74777;SDS011;63298;53.164;8.610;2023-03-01T08:32:49;10.13;;;5.93;;
74777;SDS011;63298;53.164;8.610;2023-03-01T08:35:15;9.60;;;5.90;;
74777;SDS011;63298;53.164;8.610;2023-03-01T08:37:41;12.25;;;7.38;;
74777;SDS011;63298;53.164;8.610;2023-03-01T08:40:06;20.70;;;9.18;;
74777;SDS011;63298;53.164;8.610;2023-03-01T08:42:33;16.08;;;9.48;;
74777;SDS011;63298;53.164;8.610;2023-03-01T08:44:59;18.00;;;9.67;;
74777;SDS011;63298;53.164;8.610;2023-03-01T08:47:24;22.13;;;8.63;;
74777;SDS011;63298;53.164;8.610;2023-03-01T08:49:50;13.77;;;8.20;;
74777;SDS011;63298;53.164;8.610;2023-03-01T08:52:15;18.38;;;8.57;;
74777;SDS011;63298;53.164;8.610;2023-03-01T08:54:41;19.40;;;7.97;;
74777;SDS011;63298;53.164;8.610;2023-03-01T08:57:06;15.38;;;7.57;;
74777;SDS011;63298;53.164;8.610;2023-03-01T08:59:31;14.10;;;8.07;;
74777;SDS011;63298;53.164;8.610;2023-03-01T09:01:57;14.68;;;7.85;;
74777;SDS011;63298;53.164;8.610;2023-03-01T09:04:22;15.13;;;9.30;;
74777;SDS011;63298;53.164;8.610;2023-03-01T09:06:47;14.40;;;8.70;;
74777;SDS011;63298;53.164;8.610;2023-03-01T09:09:16;12.45;;;7.70;;
74777;SDS011;63298;53.164;8.610;2023-03-01T09:14:08;17.75;;;8.68;;
74777;SDS011;63298;53.164;8.610;2023-03-01T09:16:33;19.27;;;10.23;;
74777;SDS011;63298;53.164;8.610;2023-03-01T09:18:58;17.38;;;9.52;;
74777;SDS011;63298;53.164;8.610;2023-03-01T09:21:24;22.53;;;10.13;;
74777;SDS011;63298;53.164;8.610;2023-03-01T09:23:49;19.58;;;8.90;;
74777;SDS011;63298;53.164;8.610;2023-03-01T09:26:16;16.13;;;8.48;;
74777;SDS011;63298;53.164;8.610;2023-03-01T09:28:43;18.17;;;8.52;;
74777;SDS011;63298;53.164;8.610;2023-03-01T09:31:08;17.10;;;8.40;;
74777;SDS011;63298;53.164;8.610;2023-03-01T09:33:34;20.25;;;9.07;;
74777;SDS011;63298;53.164;8.610;2023-03-01T09:36:04;14.55;;;8.13;;
74777;SDS011;63298;53.164;8.610;2023-03-01T09:38:31;19.58;;;9.27;;
74777;SDS011;63298;53.164;8.610;2023-03-01T09:40:56;16.58;;;7.57;;
74777;SDS011;63298;53.164;8.610;2023-03-01T09:46:11;14.20;;;6.28;;
74777;SDS011;63298;53.164;8.610;2023-03-01T09:48:41;14.23;;;4.50;;
74777;SDS011;63298;53.164;8.610;2023-03-01T09:51:18;10.13;;;3.85;;
74777;SDS011;63298;53.164;8.610;2023-03-01T09:53:48;4.28;;;2.60;;
74777;SDS011;63298;53.164;8.610;2023-03-01T10:02:26;7.13;;;3.03;;
74777;SDS011;63298;53.164;8.610;2023-03-01T10:05:00;4.03;;;2.60;;
74777;SDS011;63298;53.164;8.610;2023-03-01T10:10:39;4.50;;;3.10;;
74777;SDS011;63298;53.164;8.610;2023-03-01T10:13:13;5.40;;;3.30;;
74777;SDS011;63298;53.164;8.610;2023-03-01T10:15:47;5.50;;;3.25;;
74777;SDS011;63298;53.164;8.610;2023-03-01T10:18:17;5.90;;;2.97;;
74777;SDS011;63298;53.164;8.610;2023-03-01T10:20:52;5.75;;;2.90;;
74777;SDS011;63298;53.164;8.610;2023-03-01T10:23:36;5.18;;;3.38;;
74777;SDS011;63298;53.164;8.610;2023-03-01T10:26:07;7.20;;;3.67;;
74777;SDS011;63298;53.164;8.610;2023-03-01T10:31:23;6.07;;;3.30;;
74777;SDS011;63298;53.164;8.610;2023-03-01T10:36:17;4.83;;;3.90;;
74777;SDS011;63298;53.164;8.610;2023-03-01T10:38:50;8.05;;;3.85;;
74777;SDS011;63298;53.164;8.610;2023-03-01T10:41:22;18.63;;;4.57;;
74777;SDS011;63298;53.164;8.610;2023-03-01T10:43:51;9.98;;;5.25;;
74777;SDS011;63298;53.164;8.610;2023-03-01T10:46:22;6.90;;;4.90;;
74777;SDS011;63298;53.164;8.610;2023-03-01T10:51:41;9.77;;;5.10;;
74777;SDS011;63298;53.164;8.610;2023-03-01T10:54:19;9.80;;;5.25;;
74777;SDS011;63298;53.164;8.610;2023-03-01T10:56:56;8.90;;;5.47;;
74777;SDS011;63298;53.164;8.610;2023-03-01T10:59:31;8.20;;;5.53;;
74777;SDS011;63298;53.164;8.610;2023-03-01T11:02:23;8.18;;;5.88;;
74777;SDS011;63298;53.164;8.610;2023-03-01T11:07:22;9.27;;;6.35;;
74777;SDS011;63298;53.164;8.610;2023-03-01T11:09:47;9.50;;;6.78;;
74777;SDS011;63298;53.164;8.610;2023-03-01T11:12:13;10.77;;;7.13;;
74777;SDS011;63298;53.164;8.610;2023-03-01T11:14:46;11.60;;;6.82;;
74777;SDS011;63298;53.164;8.610;2023-03-01T11:17:28;10.20;;;7.07;;
74777;SDS011;63298;53.164;8.610;2023-03-01T11:22:45;10.93;;;6.88;;
74777;SDS011;63298;53.164;8.610;2023-03-01T11:25:13;10.13;;;6.30;;
74777;SDS011;63298;53.164;8.610;2023-03-01T11:27:41;10.38;;;6.88;;
74777;SDS011;63298;53.164;8.610;2023-03-01T11:30:20;13.43;;;7.55;;
74777;SDS011;63298;53.164;8.610;2023-03-01T11:32:47;12.73;;;8.18;;
74777;SDS011;63298;53.164;8.610;2023-03-01T11:35:24;10.52;;;7.05;;
74777;SDS011;63298;53.164;8.610;2023-03-01T11:43:15;12.98;;;6.93;;
74777;SDS011;63298;53.164;8.610;2023-03-01T11:56:40;12.30;;;7.18;;
74777;SDS011;63298;53.164;8.610;2023-03-01T12:02:08;12.93;;;6.78;;
74777;SDS011;63298;53.164;8.610;2023-03-01T12:05:03;10.52;;;7.30;;
74777;SDS011;63298;53.164;8.610;2023-03-01T12:11:01;10.77;;;7.30;;
74777;SDS011;63298;53.164;8.610;2023-03-01T12:19:21;10.07;;;7.10;;
74777;SDS011;63298;53.164;8.610;2023-03-01T12:25:02;12.77;;;7.65;;
74777;SDS011;63298;53.164;8.610;2023-03-01T12:30:27;11.73;;;7.53;;
74777;SDS011;63298;53.164;8.610;2023-03-01T12:41:08;10.20;;;7.60;;
74777;SDS011;63298;53.164;8.610;2023-03-01T12:49:31;11.50;;;7.85;;
74777;SDS011;63298;53.164;8.610;2023-03-01T12:52:39;13.27;;;7.68;;
74777;SDS011;63298;53.164;8.610;2023-03-01T12:55:18;14.68;;;8.02;;
74777;SDS011;63298;53.164;8.610;2023-03-01T12:57:53;13.20;;;7.93;;
74777;SDS011;63298;53.164;8.610;2023-03-01T13:00:28;12.00;;;7.60;;
74777;SDS011;63298;53.164;8.610;2023-03-01T13:05:39;16.70;;;8.32;;
74777;SDS011;63298;53.164;8.610;2023-03-01T13:08:31;10.80;;;7.45;;
74777;SDS011;63298;53.164;8.610;2023-03-01T13:11:05;12.25;;;7.93;;
74777;SDS011;63298;53.164;8.610;2023-03-01T13:13:37;12.82;;;8.20;;
74777;SDS011;63298;53.164;8.610;2023-03-01T13:21:55;13.07;;;7.72;;
74777;SDS011;63298;53.164;8.610;2023-03-01T13:24:28;13.05;;;7.75;;
74777;SDS011;63298;53.164;8.610;2023-03-01T13:29:48;14.30;;;7.68;;
74777;SDS011;63298;53.164;8.610;2023-03-01T13:32:20;14.20;;;7.55;;
74777;SDS011;63298;53.164;8.610;2023-03-01T13:34:48;9.88;;;6.95;;
74777;SDS011;63298;53.164;8.610;2023-03-01T13:37:20;11.55;;;7.43;;
74777;SDS011;63298;53.164;8.610;2023-03-01T13:39:47;13.02;;;7.72;;
74777;SDS011;63298;53.164;8.610;2023-03-01T13:42:32;15.98;;;8.18;;
74777;SDS011;63298;53.164;8.610;2023-03-01T13:45:45;12.85;;;8.10;;
74777;SDS011;63298;53.164;8.610;2023-03-01T13:50:47;12.60;;;7.85;;
74777;SDS011;63298;53.164;8.610;2023-03-01T13:53:20;13.63;;;7.95;;
74777;SDS011;63298;53.164;8.610;2023-03-01T13:55:55;13.85;;;7.80;;
74777;SDS011;63298;53.164;8.610;2023-03-01T13:58:28;9.55;;;6.65;;
74777;SDS011;63298;53.164;8.610;2023-03-01T14:03:21;13.25;;;7.78;;
74777;SDS011;63298;53.164;8.610;2023-03-01T14:05:58;12.32;;;7.97;;
74777;SDS011;63298;53.164;8.610;2023-03-01T14:08:25;13.20;;;8.27;;
74777;SDS011;63298;53.164;8.610;2023-03-01T14:16:49;12.57;;;8.23;;
74777;SDS011;63298;53.164;8.610;2023-03-01T14:19:36;11.98;;;7.47;;
74777;SDS011;63298;53.164;8.610;2023-03-01T14:24:29;13.88;;;8.18;;
74777;SDS011;63298;53.164;8.610;2023-03-01T14:26:56;12.02;;;8.23;;
74777;SDS011;63298;53.164;8.610;2023-03-01T14:29:25;11.35;;;7.50;;
74777;SDS011;63298;53.164;8.610;2023-03-01T14:31:52;12.00;;;7.25;;
74777;SDS011;63298;53.164;8.610;2023-03-01T14:34:18;13.60;;;8.35;;
74777;SDS011;63298;53.164;8.610;2023-03-01T14:36:46;13.65;;;8.52;;
74777;SDS011;63298;53.164;8.610;2023-03-01T14:39:16;14.82;;;9.30;;
74777;SDS011;63298;53.164;8.610;2023-03-01T14:41:44;14.95;;;8.35;;
74777;SDS011;63298;53.164;8.610;2023-03-01T14:44:19;12.52;;;7.75;;
74777;SDS011;63298;53.164;8.610;2023-03-01T14:46:51;14.13;;;7.95;;
74777;SDS011;63298;53.164;8.610;2023-03-01T14:49:22;14.57;;;7.90;;
74777;SDS011;63298;53.164;8.610;2023-03-01T14:51:57;12.13;;;8.07;;
74777;SDS011;63298;53.164;8.610;2023-03-01T14:57:14;13.95;;;8.13;;
74777;SDS011;63298;53.164;8.610;2023-03-01T14:59:41;11.82;;;7.47;;
74777;SDS011;63298;53.164;8.610;2023-03-01T15:02:08;13.80;;;8.25;;
74777;SDS011;63298;53.164;8.610;2023-03-01T15:04:40;14.02;;;7.95;;
74777;SDS011;63298;53.164;8.610;2023-03-01T15:07:09;14.43;;;7.72;;
74777;SDS011;63298;53.164;8.610;2023-03-01T15:09:39;13.70;;;6.95;;
74777;SDS011;63298;53.164;8.610;2023-03-01T15:15:21;16.40;;;8.38;;
74777;SDS011;63298;53.164;8.610;2023-03-01T15:17:55;13.27;;;8.48;;
74777;SDS011;63298;53.164;8.610;2023-03-01T15:20:24;16.98;;;8.75;;
74777;SDS011;63298;53.164;8.610;2023-03-01T15:22:51;14.95;;;7.88;;
74777;SDS011;63298;53.164;8.610;2023-03-01T15:25:18;13.82;;;8.75;;
74777;SDS011;63298;53.164;8.610;2023-03-01T15:27:46;17.27;;;9.45;;
74777;SDS011;63298;53.164;8.610;2023-03-01T15:30:17;14.52;;;8.80;;
74777;SDS011;63298;53.164;8.610;2023-03-01T15:33:27;16.52;;;8.57;;
74777;SDS011;63298;53.164;8.610;2023-03-01T15:35:55;16.88;;;8.50;;
74777;SDS011;63298;53.164;8.610;2023-03-01T15:41:27;15.52;;;8.27;;
74777;SDS011;63298;53.164;8.610;2023-03-01T15:43:56;14.32;;;8.40;;
74777;SDS011;63298;53.164;8.610;2023-03-01T15:46:27;14.30;;;7.78;;
74777;SDS011;63298;53.164;8.610;2023-03-01T15:49:04;13.35;;;7.90;;
74777;SDS011;63298;53.164;8.610;2023-03-01T15:51:47;14.45;;;8.50;;
74777;SDS011;63298;53.164;8.610;2023-03-01T15:54:17;12.95;;;8.15;;
74777;SDS011;63298;53.164;8.610;2023-03-01T15:56:48;11.60;;;7.50;;
74777;SDS011;63298;53.164;8.610;2023-03-01T15:59:14;15.43;;;8.05;;
74777;SDS011;63298;53.164;8.610;2023-03-01T16:01:42;14.02;;;8.50;;
74777;SDS011;63298;53.164;8.610;2023-03-01T16:06:38;16.27;;;8.77;;
74777;SDS011;63298;53.164;8.610;2023-03-01T16:09:03;17.35;;;9.15;;
74777;SDS011;63298;53.164;8.610;2023-03-01T16:11:29;15.93;;;8.30;;
74777;SDS011;63298;53.164;8.610;2023-03-01T16:13:54;16.08;;;9.05;;
74777;SDS011;63298;53.164;8.610;2023-03-01T16:16:19;16.42;;;8.52;;
74777;SDS011;63298;53.164;8.610;2023-03-01T16:18:45;13.70;;;8.15;;
74777;SDS011;63298;53.164;8.610;2023-03-01T16:21:12;13.50;;;8.07;;
74777;SDS011;63298;53.164;8.610;2023-03-01T16:23:38;15.02;;;8.65;;
74777;SDS011;63298;53.164;8.610;2023-03-01T16:26:04;16.73;;;9.30;;
74777;SDS011;63298;53.164;8.610;2023-03-01T16:28:29;14.13;;;8.68;;
74777;SDS011;63298;53.164;8.610;2023-03-01T16:30:55;17.38;;;9.30;;
74777;SDS011;63298;53.164;8.610;2023-03-01T16:33:20;18.15;;;10.02;;
74777;SDS011;63298;53.164;8.610;2023-03-01T16:35:45;18.92;;;9.35;;
74777;SDS011;63298;53.164;8.610;2023-03-01T16:38:11;16.98;;;9.07;;
74777;SDS011;63298;53.164;8.610;2023-03-01T16:40:36;17.92;;;9.30;;
74777;SDS011;63298;53.164;8.610;2023-03-01T16:43:02;15.40;;;8.55;;
74777;SDS011;63298;53.164;8.610;2023-03-01T16:45:28;18.40;;;8.80;;
74777;SDS011;63298;53.164;8.610;2023-03-01T16:47:59;17.35;;;9.38;;
74777;SDS011;63298;53.164;8.610;2023-03-01T16:50:24;17.52;;;9.65;;
74777;SDS011;63298;53.164;8.610;2023-03-01T16:52:49;17.25;;;8.48;;
74777;SDS011;63298;53.164;8.610;2023-03-01T16:55:15;17.38;;;9.43;;